createdAt,value
2023-04-03T00:02:20.111Z,100921.78
2023-04-03T00:04:49.930Z,100927.56
2023-04-03T00:07:19.570Z,100923.53
2023-04-03T00:09:49.243Z,100925.06
2023-04-03T00:12:21.624Z,100914.38
2023-04-03T00:14:51.456Z,100920.16
2023-04-03T00:17:21.195Z,100922.38
2023-04-03T00:19:51.011Z,100928.25
2023-04-03T00:22:20.724Z,100922.88
2023-04-03T00:24:50.509Z,100920.81
2023-04-03T00:27:22.744Z,100921.78
2023-04-03T00:29:52.463Z,100932.03
2023-04-03T00:32:22.275Z,100934.84
2023-04-03T00:34:52.465Z,100933.28
2023-04-03T00:37:22.326Z,100929.75
2023-04-03T00:39:52.018Z,100942.41
2023-04-03T00:42:24.288Z,100936.88
2023-04-03T00:45:24.373Z,100941.09
2023-04-03T00:47:54.338Z,100943.03
2023-04-03T00:50:24.139Z,100945.66
2023-04-03T00:52:54.816Z,100947.28
2023-04-03T00:55:24.831Z,100955.66
2023-04-03T00:57:58.767Z,100946.38
2023-04-03T01:00:29.240Z,100954.44
2023-04-03T01:02:59.544Z,100959.88
2023-04-03T01:05:30.195Z,100964.00
2023-04-03T01:08:03.103Z,100957.88
2023-04-03T01:10:32.826Z,100964.84
2023-04-03T01:13:05.190Z,100966.44
2023-04-03T01:15:36.177Z,100963.16
2023-04-03T01:18:06.743Z,100968.25
2023-04-03T01:21:08.044Z,100965.25
2023-04-03T01:24:00.291Z,100961.50
2023-04-03T01:26:31.223Z,100970.44
2023-04-03T01:29:03.955Z,100960.31
2023-04-03T01:31:38.934Z,100972.06
2023-04-03T01:34:11.241Z,100971.53
2023-04-03T01:36:41.193Z,100970.88
2023-04-03T01:39:11.100Z,100969.97
2023-04-03T01:41:40.983Z,100967.34
2023-04-03T01:44:17.267Z,100965.78
2023-04-03T01:46:48.581Z,100967.56
2023-04-03T01:49:21.060Z,100970.16
2023-04-03T01:51:50.841Z,100967.00
2023-04-03T01:54:20.570Z,100976.16
2023-04-03T01:56:50.273Z,100970.59
2023-04-03T01:59:21.040Z,100970.66
2023-04-03T02:01:53.504Z,100977.38
2023-04-03T02:04:25.926Z,100982.94
2023-04-03T02:06:55.655Z,100977.34
2023-04-03T02:09:25.276Z,100985.25
2023-04-03T02:11:56.228Z,100980.50
2023-04-03T02:14:26.067Z,100989.19
2023-04-03T02:16:55.797Z,100981.78
2023-04-03T02:19:28.674Z,100983.38
2023-04-03T02:21:58.343Z,100988.84
2023-04-03T02:24:28.612Z,100986.72
2023-04-03T02:26:58.430Z,100987.00
2023-04-03T02:29:28.577Z,100991.06
2023-04-03T02:31:58.306Z,100988.31
2023-04-03T02:34:31.171Z,101002.59
2023-04-03T02:37:02.546Z,101002.63
2023-04-03T02:39:32.501Z,101001.22
2023-04-03T02:42:03.447Z,101008.34
2023-04-03T02:44:33.225Z,101007.91
2023-04-03T02:47:03.856Z,101010.44
2023-04-03T02:49:36.208Z,101009.78
2023-04-03T02:52:06.103Z,101012.34
2023-04-03T02:54:36.125Z,101013.28
2023-04-03T02:57:10.214Z,101017.72
2023-04-03T02:59:41.673Z,101019.41
2023-04-03T03:02:13.323Z,101015.72
2023-04-03T03:04:45.598Z,101016.09
2023-04-03T03:07:15.372Z,101013.75
2023-04-03T03:09:45.157Z,101015.22
2023-04-03T03:12:15.046Z,101015.66
2023-04-03T03:14:44.656Z,101017.13
2023-04-03T03:17:14.343Z,101019.00
2023-04-03T03:19:47.284Z,101009.94
2023-04-03T03:22:17.083Z,101016.75
2023-04-03T03:24:46.788Z,101022.44
2023-04-03T03:27:17.283Z,101019.50
2023-04-03T03:29:47.367Z,101018.97
2023-04-03T03:32:17.462Z,101027.56
2023-04-03T03:34:51.812Z,101029.28
2023-04-03T03:37:21.739Z,101019.41
2023-04-03T03:39:51.425Z,101028.84
2023-04-03T03:42:21.104Z,101022.16
2023-04-03T03:44:51.059Z,101024.19
2023-04-03T03:47:21.353Z,101025.34
2023-04-03T03:49:53.986Z,101023.50
2023-04-03T03:52:23.693Z,101018.53
2023-04-03T03:54:53.363Z,101030.59
2023-04-03T03:57:23.146Z,101030.25
2023-04-03T03:59:53.919Z,101032.19
2023-04-03T04:02:23.964Z,101034.28
2023-04-03T04:04:56.704Z,101036.16
2023-04-03T04:07:29.228Z,101035.16
2023-04-03T04:09:59.611Z,101041.03
2023-04-03T04:12:29.342Z,101038.94
2023-04-03T04:14:59.024Z,101043.72
2023-04-03T04:17:28.794Z,101047.19
2023-04-03T04:20:02.047Z,101034.09
2023-04-03T04:22:32.213Z,101040.44
2023-04-03T04:25:02.882Z,101047.63
2023-04-03T04:27:32.721Z,101044.13
2023-04-03T04:30:02.523Z,101042.91
2023-04-03T04:32:32.490Z,101050.13
2023-04-03T04:35:07.067Z,101053.94
2023-04-03T04:37:39.700Z,101051.94
2023-04-03T04:40:11.264Z,101061.22
2023-04-03T04:42:41.546Z,101064.88
2023-04-03T04:45:11.925Z,101060.97
2023-04-03T04:47:44.013Z,101059.81
2023-04-03T04:50:17.436Z,101061.56
2023-04-03T04:52:50.396Z,101059.88
2023-04-03T04:55:20.337Z,101068.56
2023-04-03T04:57:50.484Z,101059.97
2023-04-03T05:00:21.519Z,101061.50
2023-04-03T05:02:51.679Z,101065.94
2023-04-03T05:05:25.591Z,101068.75
2023-04-03T05:07:55.822Z,101068.69
2023-04-03T05:10:25.567Z,101073.97
2023-04-03T05:12:55.578Z,101067.81
2023-04-03T05:15:25.405Z,101075.88
2023-04-03T05:17:55.316Z,101076.03
2023-04-03T05:20:28.085Z,101076.66
2023-04-03T05:22:57.914Z,101075.78
2023-04-03T05:25:27.780Z,101079.69
2023-04-03T05:28:00.117Z,101082.28
2023-04-03T05:30:30.116Z,101081.91
2023-04-03T05:32:59.901Z,101082.72
2023-04-03T05:35:54.572Z,101081.88
2023-04-03T05:38:30.064Z,101090.63
2023-04-03T05:41:00.945Z,101094.69
2023-04-03T05:43:30.805Z,101094.84
2023-04-03T05:46:01.364Z,101094.81
2023-04-03T05:48:32.616Z,101097.72
2023-04-03T05:51:05.154Z,101096.78
2023-04-03T05:53:38.331Z,101092.97
2023-04-03T05:56:09.257Z,101096.88
2023-04-03T05:58:42.636Z,101097.09
2023-04-03T06:01:12.825Z,101106.81
2023-04-03T06:03:43.020Z,101103.81
2023-04-03T06:06:18.168Z,101107.88
2023-04-03T06:08:48.010Z,101107.13
2023-04-03T06:11:17.722Z,101109.28
2023-04-03T06:13:47.457Z,101108.09
2023-04-03T06:16:18.194Z,101108.66
2023-04-03T06:18:47.825Z,101109.53
2023-04-03T06:21:20.132Z,101104.00
2023-04-03T06:23:49.893Z,101102.75
2023-04-03T06:26:19.852Z,101099.19
2023-04-03T06:28:49.540Z,101106.81
2023-04-03T06:31:19.303Z,101093.59
2023-04-03T06:33:49.481Z,101101.41
2023-04-03T06:36:23.607Z,101108.84
2023-04-03T06:38:53.668Z,101098.22
2023-04-03T06:41:23.322Z,101102.78
2023-04-03T06:43:53.003Z,101110.19
2023-04-03T06:46:25.063Z,101106.00
2023-04-03T06:48:55.550Z,101107.53
2023-04-03T06:51:30.043Z,101110.63
2023-04-03T06:54:02.017Z,101121.44
2023-04-03T06:56:32.678Z,101112.22
2023-04-03T06:59:02.421Z,101117.41
2023-04-03T07:01:33.617Z,101116.13
2023-04-03T07:04:03.453Z,101123.16
2023-04-03T07:06:36.172Z,101117.28
2023-04-03T07:09:06.460Z,101129.44
2023-04-03T07:11:36.090Z,101135.84
2023-04-03T07:14:07.299Z,101128.63
2023-04-03T07:16:37.809Z,101131.50
2023-04-03T07:19:10.005Z,101138.94
2023-04-03T07:21:43.142Z,101141.88
2023-04-03T07:24:15.935Z,101132.31
2023-04-03T07:26:46.910Z,101139.09
2023-04-03T07:29:16.603Z,101139.16
2023-04-03T07:31:46.571Z,101142.34
2023-04-03T07:34:16.623Z,101140.50
2023-04-03T07:36:48.879Z,101145.28
2023-04-03T07:39:18.533Z,101141.44
2023-04-03T07:41:48.280Z,101145.06
2023-04-03T07:44:18.099Z,101155.84
2023-04-03T07:46:47.999Z,101142.25
2023-04-03T07:49:19.156Z,101144.69
2023-04-03T07:51:51.458Z,101143.31
2023-04-03T07:54:21.204Z,101136.44
2023-04-03T07:56:51.253Z,101139.72
2023-04-03T07:59:21.175Z,101135.09
2023-04-03T08:01:50.888Z,101133.16
2023-04-03T08:04:20.882Z,101135.91
2023-04-03T08:06:53.422Z,101126.91
2023-04-03T08:09:23.522Z,101129.59
2023-04-03T08:11:54.576Z,101125.69
2023-04-03T08:14:24.281Z,101129.78
2023-04-03T08:16:54.304Z,101133.25
2023-04-03T08:19:26.443Z,101130.50
2023-04-03T08:21:59.827Z,101143.59
2023-04-03T08:24:29.621Z,101140.69
2023-04-03T08:26:59.300Z,101142.03
2023-04-03T08:29:29.258Z,101150.31
2023-04-03T08:31:59.031Z,101148.91
2023-04-03T08:34:29.040Z,101157.16
2023-04-03T08:37:01.293Z,101151.38
2023-04-03T08:39:31.336Z,101143.97
2023-04-03T08:42:03.474Z,101138.38
2023-04-03T08:44:50.002Z,101138.94
2023-04-03T08:47:28.068Z,101147.97
2023-04-03T08:50:01.361Z,101141.84
2023-04-03T08:52:40.189Z,101149.28
2023-04-03T08:55:19.748Z,101152.41
2023-04-03T08:57:51.624Z,101150.38
2023-04-03T09:00:24.838Z,101155.78
2023-04-03T09:02:56.985Z,101154.09
2023-04-03T09:05:39.003Z,101153.91
2023-04-03T09:08:18.757Z,101139.72
2023-04-03T09:10:48.833Z,101144.06
2023-04-03T09:13:31.199Z,101141.47
2023-04-03T09:16:01.665Z,101135.59
2023-04-03T09:18:37.033Z,101139.28
2023-04-03T09:21:17.479Z,101136.53
2023-04-03T09:23:54.004Z,101137.28
2023-04-03T09:26:29.774Z,101146.91
2023-04-03T09:29:02.145Z,101142.88
2023-04-03T09:31:40.942Z,101146.91
2023-04-03T09:34:21.861Z,101145.44
2023-04-03T09:36:53.739Z,101131.88
2023-04-03T09:39:29.378Z,101125.94
2023-04-03T09:42:02.714Z,101129.53
2023-04-03T09:44:35.143Z,101125.72
2023-04-03T09:47:22.150Z,101121.75
2023-04-03T09:49:51.902Z,101127.66
2023-04-03T09:52:29.799Z,101129.59
2023-04-03T09:55:11.416Z,101137.25
2023-04-03T09:57:41.245Z,101126.56
2023-04-03T10:00:24.572Z,101120.56
2023-04-03T10:02:57.622Z,101125.41
2023-04-03T10:05:35.131Z,101117.34
2023-04-03T10:08:13.849Z,101113.34
2023-04-03T10:10:48.110Z,101110.53
2023-04-03T10:13:22.083Z,101116.59
2023-04-03T10:15:55.234Z,101104.38
2023-04-03T10:18:34.395Z,101101.34
2023-04-03T10:21:14.606Z,101112.81
2023-04-03T10:23:57.054Z,101106.97
2023-04-03T10:26:36.777Z,101099.66
2023-04-03T10:29:15.747Z,101114.91
2023-04-03T10:31:52.538Z,101103.19
2023-04-03T10:34:28.469Z,101097.69
2023-04-03T10:37:05.357Z,101096.41
2023-04-03T10:39:40.922Z,101102.25
2023-04-03T10:42:22.307Z,101091.81
2023-04-03T10:45:05.764Z,101093.81
2023-04-03T10:47:44.590Z,101091.41
2023-04-03T10:50:29.889Z,101097.34
2023-04-03T10:53:05.661Z,101108.72
2023-04-03T10:55:41.538Z,101086.53
2023-04-03T10:58:17.955Z,101088.31
2023-04-03T11:00:52.386Z,101081.72
2023-04-03T11:03:34.586Z,101085.53
2023-04-03T11:06:07.350Z,101084.97
2023-04-03T11:08:42.031Z,101091.16
2023-04-03T11:11:16.453Z,101075.38
2023-04-03T11:13:55.328Z,101082.25
2023-04-03T11:16:31.966Z,101079.09
2023-04-03T11:19:07.659Z,101090.47
2023-04-03T11:21:41.771Z,101079.03
2023-04-03T11:24:20.851Z,101080.16
2023-04-03T11:26:54.113Z,101082.50
2023-04-03T11:32:13.033Z,101071.13
2023-04-03T11:34:45.961Z,101061.38
2023-04-03T11:37:21.935Z,101061.38
2023-04-03T11:39:58.774Z,101051.38
2023-04-03T11:42:36.157Z,101059.72
2023-04-03T11:45:38.255Z,101062.34
2023-04-03T11:48:23.209Z,101048.38
2023-04-03T11:50:54.251Z,101041.09
2023-04-03T11:53:33.422Z,101044.34
2023-04-03T11:56:08.785Z,101039.19
2023-04-03T11:58:39.116Z,101032.94
2023-04-03T12:01:13.780Z,101039.44
2023-04-03T12:04:16.006Z,101037.03
2023-04-03T12:07:06.371Z,101034.59
2023-04-03T12:09:57.840Z,101033.28
2023-04-03T12:12:38.410Z,101035.66
2023-04-03T12:15:25.184Z,101036.25
2023-04-03T12:17:57.665Z,101030.94
2023-04-03T12:20:58.334Z,101046.00
2023-04-03T12:23:30.994Z,101040.56
2023-04-03T12:26:32.358Z,101038.94
2023-04-03T12:29:19.582Z,101041.16
2023-04-03T12:31:59.355Z,101032.31
2023-04-03T12:34:47.797Z,101030.63
2023-04-03T12:37:34.126Z,101020.75
2023-04-03T12:40:13.589Z,101017.28
2023-04-03T12:43:06.479Z,101009.06
2023-04-03T12:45:47.546Z,101003.03
2023-04-03T12:48:20.304Z,101015.47
2023-04-03T12:50:53.823Z,101007.00
2023-04-03T12:53:28.346Z,101006.16
2023-04-03T12:55:59.076Z,100999.28
2023-04-03T12:58:31.888Z,101005.41
2023-04-03T13:01:06.739Z,101001.81
2023-04-03T13:03:36.708Z,101007.19
2023-04-03T13:06:09.650Z,101004.69
2023-04-03T13:08:39.360Z,101009.06
2023-04-03T13:11:13.961Z,101001.50
2023-04-03T13:13:43.620Z,101000.09
2023-04-03T13:16:15.514Z,100991.94
2023-04-03T13:18:45.586Z,100986.88
2023-04-03T13:21:21.922Z,100988.75
2023-04-03T13:24:00.549Z,100989.44
2023-04-03T13:26:37.775Z,100992.91
2023-04-03T13:29:12.790Z,100987.56
2023-04-03T13:31:47.502Z,100994.19
2023-04-03T13:34:27.080Z,100986.94
2023-04-03T13:37:05.543Z,100980.88
2023-04-03T13:39:38.053Z,100982.16
2023-04-03T13:42:24.131Z,100985.25
2023-04-03T13:45:21.523Z,100975.22
2023-04-03T13:47:53.468Z,100981.88
2023-04-03T13:50:26.246Z,100972.22
2023-04-03T13:53:04.375Z,100970.84
2023-04-03T13:55:36.637Z,100966.75
2023-04-03T13:58:25.353Z,100953.19
2023-04-03T14:00:57.182Z,100968.06
2023-04-03T14:03:30.246Z,100955.88
2023-04-03T14:06:01.054Z,100956.88
2023-04-03T14:08:42.243Z,100962.72
2023-04-03T14:11:18.020Z,100953.91
2023-04-03T14:13:49.062Z,100958.38
2023-04-03T14:16:21.709Z,100954.72
2023-04-03T14:18:54.136Z,100955.91
2023-04-03T14:21:24.869Z,100949.50
2023-04-03T14:23:57.622Z,100942.88
2023-04-03T14:26:29.046Z,100949.91
2023-04-03T14:28:59.244Z,100945.38
2023-04-03T14:31:29.051Z,100949.66
2023-04-03T14:33:58.845Z,100946.31
2023-04-03T14:36:31.470Z,100943.41
2023-04-03T14:39:04.957Z,100951.81
2023-04-03T14:41:34.739Z,100943.41
2023-04-03T14:44:04.783Z,100930.38
2023-04-03T14:46:54.329Z,100927.25
2023-04-03T14:49:29.215Z,100941.84
2023-04-03T14:51:59.380Z,100936.56
2023-04-03T14:54:32.572Z,100932.81
2023-04-03T14:57:04.538Z,100930.97
2023-04-03T14:59:35.472Z,100933.22
2023-04-03T15:02:08.337Z,100935.03
2023-04-03T15:04:38.300Z,100930.31
2023-04-03T15:07:08.089Z,100926.50
2023-04-03T15:09:41.147Z,100933.22
2023-04-03T15:15:03.792Z,100920.03
2023-04-03T15:17:33.891Z,100918.59
2023-04-03T15:20:04.112Z,100920.56
2023-04-03T15:22:33.895Z,100912.16
2023-04-03T15:25:06.640Z,100915.13
2023-04-03T15:27:36.448Z,100923.03
2023-04-03T15:30:07.506Z,100914.13
2023-04-03T15:32:37.545Z,100929.06
2023-04-03T15:35:08.229Z,100920.72
2023-04-03T15:37:38.060Z,100921.63
2023-04-03T15:40:11.617Z,100911.66
2023-04-03T15:42:41.789Z,100919.06
2023-04-03T15:45:12.665Z,100922.03
2023-04-03T15:47:42.505Z,100913.41
2023-04-03T15:50:13.612Z,100913.34
2023-04-03T15:52:43.340Z,100914.72
2023-04-03T15:55:15.846Z,100914.28
2023-04-03T15:57:45.575Z,100919.81
2023-04-03T16:00:17.131Z,100920.03
2023-04-03T16:02:49.087Z,100915.09
2023-04-03T16:05:20.526Z,100908.75
2023-04-03T16:07:50.925Z,100913.53
2023-04-03T16:10:23.437Z,100915.38
2023-04-03T16:12:53.139Z,100913.88
2023-04-03T16:15:23.181Z,100910.47
2023-04-03T16:17:52.906Z,100911.72
2023-04-03T16:20:23.013Z,100905.31
2023-04-03T16:22:53.037Z,100921.66
2023-04-03T16:25:25.407Z,100919.59
2023-04-03T16:27:55.163Z,100920.34
2023-04-03T16:30:25.071Z,100911.25
2023-04-03T16:32:56.607Z,100918.13
2023-04-03T16:35:26.597Z,100905.53
2023-04-03T16:37:56.285Z,100909.31
2023-04-03T16:40:28.662Z,100918.75
2023-04-03T16:42:58.371Z,100915.00
2023-04-03T16:45:28.094Z,100921.09
2023-04-03T16:47:57.985Z,100911.16
2023-04-03T16:50:27.819Z,100920.06
2023-04-03T16:52:57.662Z,100903.69
2023-04-03T16:55:30.035Z,100916.59
2023-04-03T16:57:59.772Z,100908.00
2023-04-03T17:00:29.476Z,100912.09
2023-04-03T17:02:59.214Z,100916.50
2023-04-03T17:05:29.049Z,100909.78
2023-04-03T17:07:58.785Z,100915.00
2023-04-03T17:10:31.607Z,100911.38
2023-04-03T17:13:01.374Z,100908.81
2023-04-03T17:15:31.169Z,100903.09
2023-04-03T17:18:01.226Z,100911.25
2023-04-03T17:20:30.948Z,100906.31
2023-04-03T17:23:00.652Z,100911.00
2023-04-03T17:25:33.083Z,100910.69
2023-04-03T17:28:02.818Z,100917.06
2023-04-03T17:30:32.523Z,100914.50
2023-04-03T17:33:02.268Z,100912.56
2023-04-03T17:35:32.900Z,100922.00
2023-04-03T17:38:02.593Z,100914.28
2023-04-03T17:40:34.843Z,100913.88
2023-04-03T17:43:04.772Z,100919.69
2023-04-03T17:45:34.550Z,100925.16
2023-04-03T17:48:04.261Z,100930.97
2023-04-03T17:50:34.221Z,100930.75
2023-04-03T17:53:03.976Z,100924.72
2023-04-03T17:55:36.566Z,100926.06
2023-04-03T17:58:06.366Z,100926.94
2023-04-03T18:00:36.306Z,100922.66
2023-04-03T18:03:07.356Z,100920.41
2023-04-03T18:05:38.103Z,100919.81
2023-04-03T18:08:08.344Z,100923.28
2023-04-03T18:10:41.333Z,100934.81
2023-04-03T18:13:12.297Z,100928.34
2023-04-03T18:15:45.953Z,100922.63
2023-04-03T18:18:16.174Z,100924.31
2023-04-03T18:20:46.557Z,100921.47
2023-04-03T18:23:16.349Z,100929.16
2023-04-03T18:25:49.052Z,100927.78
2023-04-03T18:28:18.737Z,100928.19
2023-04-03T18:30:49.035Z,100930.31
2023-04-03T18:33:18.817Z,100930.69
2023-04-03T18:35:49.466Z,100930.97
2023-04-03T18:38:19.265Z,100927.53
2023-04-03T18:40:51.762Z,100930.84
2023-04-03T18:43:21.619Z,100933.34
2023-04-03T18:45:51.434Z,100928.16
2023-04-03T18:48:21.665Z,100932.94
2023-04-03T18:50:51.725Z,100935.03
2023-04-03T18:53:21.564Z,100934.59
2023-04-03T18:55:53.782Z,100934.88
2023-04-03T18:58:23.519Z,100933.75
2023-04-03T19:00:53.283Z,100942.91
2023-04-03T19:03:23.450Z,100938.44
2023-04-03T19:05:53.306Z,100941.34
2023-04-03T19:08:23.175Z,100940.41
2023-04-03T19:10:55.429Z,100945.59
2023-04-03T19:13:25.161Z,100949.47
2023-04-03T19:15:59.049Z,100949.38
2023-04-03T19:18:29.513Z,100951.94
2023-04-03T19:21:00.178Z,100951.00
2023-04-03T19:23:29.939Z,100950.59
2023-04-03T19:26:07.567Z,100949.34
2023-04-03T19:28:38.669Z,100949.38
2023-04-03T19:31:14.578Z,100955.84
2023-04-03T19:33:44.503Z,100947.00
2023-04-03T19:36:15.628Z,100946.84
2023-04-03T19:38:45.511Z,100948.53
2023-04-03T19:41:22.742Z,100940.28
2023-04-03T19:43:54.345Z,100948.75
2023-04-03T19:46:25.604Z,100955.28
2023-04-03T19:48:55.514Z,100947.31
2023-04-03T19:51:25.305Z,100956.56
2023-04-03T19:53:55.681Z,100948.78
2023-04-03T19:56:28.666Z,100952.31
2023-04-03T19:58:58.362Z,100953.22
2023-04-03T20:01:30.166Z,100949.13
2023-04-03T20:04:00.192Z,100951.91
2023-04-03T20:06:29.876Z,100947.81
2023-04-03T20:08:59.729Z,100944.56
2023-04-03T20:11:32.037Z,100946.03
2023-04-03T20:14:01.882Z,100946.50
2023-04-03T20:16:31.718Z,100941.78
2023-04-03T20:19:01.830Z,100934.38
2023-04-03T20:21:33.243Z,100937.59
2023-04-03T20:24:03.538Z,100939.69
2023-04-03T20:26:46.313Z,100937.03
2023-04-03T20:29:17.881Z,100940.72
2023-04-03T20:31:47.837Z,100940.19
2023-04-03T20:34:18.308Z,100930.00
2023-04-03T20:36:49.672Z,100934.44
2023-04-03T20:39:24.335Z,100937.53
2023-04-03T20:41:56.845Z,100941.06
2023-04-03T20:44:26.620Z,100926.78
2023-04-03T20:46:56.388Z,100937.59
2023-04-03T20:49:26.193Z,100927.16
2023-04-03T20:51:55.911Z,100938.25
2023-04-03T20:54:25.977Z,100933.06
2023-04-03T20:56:58.252Z,100942.09
2023-04-03T20:59:27.989Z,100936.53
2023-04-03T21:01:58.489Z,100932.25
2023-04-03T21:04:33.235Z,100932.38
2023-04-03T21:07:33.134Z,100931.84
2023-04-03T21:10:33.041Z,100930.22
2023-04-03T21:13:32.985Z,100933.53
2023-04-03T21:16:03.121Z,100931.53
2023-04-03T21:18:53.803Z,100934.94
2023-04-03T21:21:26.391Z,100933.31
2023-04-03T21:23:57.703Z,100934.66
2023-04-03T21:26:29.389Z,100928.28
2023-04-03T21:28:59.485Z,100919.16
2023-04-03T21:31:50.526Z,100930.28
2023-04-03T21:34:26.025Z,100917.28
2023-04-03T21:36:55.769Z,100922.78
2023-04-03T21:39:25.858Z,100915.59
2023-04-03T21:41:55.827Z,100917.03
2023-04-03T21:44:26.128Z,100916.28
2023-04-03T21:46:56.522Z,100924.88
2023-04-03T21:49:29.804Z,100920.00
2023-04-03T21:51:59.492Z,100915.75
2023-04-03T21:54:29.363Z,100910.09
2023-04-03T21:56:59.027Z,100915.25
2023-04-03T21:59:28.744Z,100916.72
2023-04-03T22:01:58.554Z,100911.03
2023-04-03T22:04:30.868Z,100909.78
2023-04-03T22:07:00.555Z,100911.84
2023-04-03T22:09:30.214Z,100908.28
2023-04-03T22:12:00.269Z,100902.31
2023-04-03T22:14:31.137Z,100904.75
2023-04-03T22:17:00.914Z,100898.84
2023-04-03T22:19:33.155Z,100905.47
2023-04-03T22:22:03.810Z,100905.19
2023-04-03T22:24:33.465Z,100903.84
2023-04-03T22:27:03.421Z,100902.94
2023-04-03T22:29:33.305Z,100903.16
2023-04-03T22:32:02.995Z,100901.72
2023-04-03T22:34:38.263Z,100903.41
2023-04-03T22:37:07.914Z,100903.75
2023-04-03T22:39:37.559Z,100892.97
2023-04-03T22:42:07.864Z,100895.94
2023-04-03T22:44:37.970Z,100894.00
2023-04-03T22:47:07.765Z,100894.50
2023-04-03T22:49:40.040Z,100895.63
2023-04-03T22:52:10.051Z,100893.03
2023-04-03T22:54:39.746Z,100899.94
2023-04-03T22:57:10.082Z,100894.53
2023-04-03T22:59:39.744Z,100895.56
2023-04-03T23:02:09.409Z,100891.00
2023-04-03T23:04:41.902Z,100894.53
2023-04-03T23:07:11.815Z,100892.34
2023-04-03T23:09:41.477Z,100896.91
2023-04-03T23:12:11.886Z,100894.53
2023-04-03T23:14:41.528Z,100889.66
2023-04-03T23:17:11.218Z,100896.34
2023-04-03T23:19:43.732Z,100893.13
2023-04-03T23:22:15.161Z,100899.44
2023-04-03T23:24:45.310Z,100900.25
2023-04-03T23:27:14.993Z,100898.19
2023-04-03T23:29:44.798Z,100900.25
2023-04-03T23:32:14.642Z,100892.69
2023-04-03T23:34:47.083Z,100901.25
2023-04-03T23:37:16.944Z,100898.03
2023-04-03T23:39:46.610Z,100894.59
2023-04-03T23:42:16.256Z,100899.44
2023-04-03T23:44:46.020Z,100899.22
2023-04-03T23:47:15.673Z,100902.59
2023-04-03T23:49:48.987Z,100898.78
2023-04-03T23:52:18.660Z,100900.25
2023-04-03T23:54:49.584Z,100903.22
2023-04-03T23:57:19.332Z,100903.22
2023-04-03T23:59:48.992Z,100895.84
